createdAt,value
2017-06-30T00:00:00.551Z,5.95
2017-06-30T00:00:04.942Z,5.90
2017-06-30T00:00:09.187Z,5.80
2017-06-30T00:00:14.193Z,6.00
2017-06-30T00:00:18.675Z,6.10
2017-06-30T00:00:22.914Z,6.00
2017-06-30T00:00:27.274Z,5.90
2017-06-30T00:00:31.528Z,6.00
2017-06-30T00:00:35.771Z,6.10
2017-06-30T00:00:40.011Z,6.10
2017-06-30T00:00:45.030Z,6.10
2017-06-30T00:00:49.258Z,5.90
2017-06-30T00:00:53.605Z,5.90
2017-06-30T00:00:58.316Z,6.00
2017-06-30T00:01:03.504Z,6.17
2017-06-30T00:01:07.809Z,6.13
2017-06-30T00:01:12.073Z,6.10
2017-06-30T00:01:17.079Z,5.97
2017-06-30T00:01:22.086Z,6.10
2017-06-30T00:01:26.327Z,6.20
2017-06-30T00:01:30.590Z,6.15
2017-06-30T00:01:35.596Z,6.15
2017-06-30T00:01:39.839Z,5.97
2017-06-30T00:01:44.092Z,5.80
2017-06-30T00:01:48.338Z,5.70
2017-06-30T00:01:52.600Z,5.70
2017-06-30T00:01:56.851Z,5.80
2017-06-30T00:02:01.129Z,5.83
2017-06-30T00:02:05.478Z,5.90
2017-06-30T00:02:09.778Z,5.85
2017-06-30T00:02:14.026Z,5.85
2017-06-30T00:02:18.290Z,5.90
2017-06-30T00:02:22.540Z,5.90
2017-06-30T00:02:26.787Z,5.80
2017-06-30T00:02:31.307Z,5.80
2017-06-30T00:02:35.549Z,5.90
2017-06-30T00:02:39.790Z,6.00
2017-06-30T00:02:44.049Z,6.10
2017-06-30T00:02:48.283Z,6.60
2017-06-30T00:02:52.533Z,6.70
2017-06-30T00:02:56.834Z,6.60
2017-06-30T00:03:01.135Z,6.57
2017-06-30T00:03:06.157Z,6.55
2017-06-30T00:03:10.874Z,7.40
2017-06-30T00:03:15.118Z,6.47
2017-06-30T00:03:19.371Z,6.50
2017-06-30T00:03:24.381Z,6.75
2017-06-30T00:03:29.402Z,6.77
2017-06-30T00:03:34.403Z,6.70
2017-06-30T00:03:38.778Z,6.70
2017-06-30T00:03:43.031Z,6.70
2017-06-30T00:03:47.295Z,6.15
2017-06-30T00:03:51.543Z,6.10
2017-06-30T00:03:55.794Z,6.20
2017-06-30T00:04:00.241Z,6.10
2017-06-30T00:04:04.755Z,6.20
2017-06-30T00:04:09.095Z,6.10
2017-06-30T00:04:13.356Z,6.10
2017-06-30T00:04:17.599Z,6.03
2017-06-30T00:04:21.846Z,5.90
2017-06-30T00:04:26.097Z,5.95
2017-06-30T00:04:30.387Z,6.00
2017-06-30T00:04:34.729Z,6.00
2017-06-30T00:04:38.999Z,6.05
2017-06-30T00:04:43.238Z,6.10
2017-06-30T00:04:48.279Z,6.10
2017-06-30T00:04:52.531Z,5.97
2017-06-30T00:04:57.171Z,5.90
2017-06-30T00:05:02.177Z,6.00
2017-06-30T00:05:06.435Z,5.93
2017-06-30T00:05:10.689Z,5.90
2017-06-30T00:05:15.694Z,6.00
2017-06-30T00:05:20.717Z,5.90
2017-06-30T00:05:25.725Z,6.20
2017-06-30T00:05:29.974Z,6.20
2017-06-30T00:05:34.243Z,6.15
2017-06-30T00:05:39.251Z,5.93
2017-06-30T00:05:44.259Z,5.70
2017-06-30T00:05:48.531Z,5.63
2017-06-30T00:05:52.773Z,5.70
2017-06-30T00:05:57.061Z,5.60
2017-06-30T00:06:01.316Z,5.50
2017-06-30T00:06:05.559Z,5.55
2017-06-30T00:06:09.801Z,5.70
2017-06-30T00:06:14.042Z,5.60
2017-06-30T00:06:18.309Z,5.77
2017-06-30T00:06:22.601Z,5.80
2017-06-30T00:06:27.695Z,5.65
2017-06-30T00:06:32.708Z,5.37
2017-06-30T00:06:36.960Z,5.40
2017-06-30T00:06:41.211Z,5.50
2017-06-30T00:06:46.251Z,5.50
2017-06-30T00:06:50.495Z,5.60
2017-06-30T00:06:54.739Z,5.50
2017-06-30T00:06:59.755Z,5.47
2017-06-30T00:07:04.763Z,5.70
2017-06-30T00:07:09.080Z,5.53
2017-06-30T00:07:14.113Z,5.30
2017-06-30T00:07:18.358Z,5.13
2017-06-30T00:07:22.594Z,5.10
2017-06-30T00:07:26.879Z,5.20
2017-06-30T00:07:31.157Z,5.35
2017-06-30T00:07:35.423Z,5.45
2017-06-30T00:07:39.743Z,5.60
2017-06-30T00:07:43.994Z,5.60
2017-06-30T00:07:49.023Z,5.65
2017-06-30T00:07:53.276Z,5.80
2017-06-30T00:07:57.669Z,5.80
2017-06-30T00:08:01.939Z,5.73
2017-06-30T00:08:06.206Z,5.70
2017-06-30T00:08:10.453Z,5.75
2017-06-30T00:08:14.687Z,5.90
2017-06-30T00:08:18.977Z,6.00
2017-06-30T00:08:23.231Z,5.90
2017-06-30T00:08:28.057Z,5.90
2017-06-30T00:08:32.387Z,5.97
2017-06-30T00:08:36.644Z,6.13
2017-06-30T00:08:40.894Z,5.90
2017-06-30T00:08:45.164Z,5.90
2017-06-30T00:08:50.095Z,5.80
2017-06-30T00:08:54.343Z,6.20
2017-06-30T00:08:58.594Z,6.40
2017-06-30T00:09:02.839Z,6.40
2017-06-30T00:09:07.876Z,6.30
2017-06-30T00:09:12.227Z,6.20
2017-06-30T00:09:16.823Z,5.97
2017-06-30T00:09:21.067Z,5.85
2017-06-30T00:09:26.079Z,5.80
2017-06-30T00:09:30.466Z,5.80
2017-06-30T00:09:34.707Z,5.80
2017-06-30T00:09:38.955Z,5.80
2017-06-30T00:09:43.198Z,5.70
2017-06-30T00:09:48.222Z,5.70
2017-06-30T00:09:53.355Z,5.67
2017-06-30T00:09:58.361Z,5.40
2017-06-30T00:10:03.412Z,5.30
2017-06-30T00:10:07.746Z,5.40
2017-06-30T00:10:11.968Z,5.40
2017-06-30T00:10:16.979Z,5.57
2017-06-30T00:10:21.240Z,5.60
2017-06-30T00:10:25.487Z,5.60
2017-06-30T00:10:29.751Z,5.60
2017-06-30T00:10:33.990Z,5.40
2017-06-30T00:10:38.999Z,5.47
2017-06-30T00:10:43.648Z,5.53
2017-06-30T00:10:48.290Z,5.65
2017-06-30T00:10:52.538Z,5.73
2017-06-30T00:10:56.815Z,5.80
2017-06-30T00:11:01.199Z,5.80
2017-06-30T00:11:05.435Z,5.90
2017-06-30T00:11:10.465Z,5.80
2017-06-30T00:11:15.489Z,5.77
2017-06-30T00:11:19.716Z,5.70
2017-06-30T00:11:23.960Z,5.70
2017-06-30T00:11:28.974Z,5.70
2017-06-30T00:11:33.335Z,5.73
2017-06-30T00:11:37.579Z,5.75
2017-06-30T00:11:41.974Z,5.70
2017-06-30T00:11:46.364Z,5.60
2017-06-30T00:11:50.687Z,5.60
2017-06-30T00:11:54.959Z,5.77
2017-06-30T00:11:59.212Z,5.70
2017-06-30T00:12:03.449Z,5.80
2017-06-30T00:12:07.687Z,5.70
2017-06-30T00:12:11.944Z,5.80
2017-06-30T00:12:16.184Z,5.80
2017-06-30T00:12:20.424Z,5.80
2017-06-30T00:12:24.666Z,5.80
2017-06-30T00:12:29.075Z,5.80
2017-06-30T00:12:33.461Z,5.80
2017-06-30T00:12:37.875Z,5.70
2017-06-30T00:12:42.158Z,5.70
2017-06-30T00:12:46.419Z,5.70
2017-06-30T00:12:50.677Z,5.63
2017-06-30T00:12:54.969Z,5.40
2017-06-30T00:12:59.171Z,6.55
2017-06-30T00:13:03.465Z,7.95
2017-06-30T00:13:07.722Z,8.20
2017-06-30T00:13:11.971Z,8.60
2017-06-30T00:13:16.221Z,8.70
2017-06-30T00:13:20.594Z,8.77
2017-06-30T00:13:24.831Z,8.90
2017-06-30T00:13:29.278Z,9.20
2017-06-30T00:13:33.538Z,9.80
2017-06-30T00:13:37.787Z,10.00
2017-06-30T00:13:42.079Z,10.00
2017-06-30T00:13:46.338Z,10.00
2017-06-30T00:13:50.603Z,9.60
2017-06-30T00:13:54.863Z,9.40
2017-06-30T00:13:59.099Z,7.35
2017-06-30T00:14:03.352Z,5.70
2017-06-30T00:14:07.596Z,5.60
2017-06-30T00:14:11.835Z,5.60
2017-06-30T00:14:16.087Z,5.70
2017-06-30T00:14:20.343Z,5.93
2017-06-30T00:14:24.587Z,5.90
2017-06-30T00:14:28.831Z,5.65
2017-06-30T00:14:33.082Z,5.50
2017-06-30T00:14:37.339Z,5.43
2017-06-30T00:14:41.584Z,5.60
2017-06-30T00:14:45.841Z,5.60
2017-06-30T00:14:50.186Z,6.03
2017-06-30T00:14:54.427Z,6.10
2017-06-30T00:14:59.445Z,6.60
2017-06-30T00:15:03.727Z,6.57
2017-06-30T00:15:07.982Z,6.65
2017-06-30T00:15:12.239Z,6.30
2017-06-30T00:15:16.506Z,6.00
2017-06-30T00:15:20.742Z,5.85
2017-06-30T00:15:25.746Z,5.77
2017-06-30T00:15:30.235Z,5.70
2017-06-30T00:15:35.279Z,5.95
2017-06-30T00:15:39.539Z,5.60
2017-06-30T00:15:43.782Z,5.60
2017-06-30T00:15:48.797Z,5.40
2017-06-30T00:15:53.171Z,5.40
2017-06-30T00:15:58.467Z,5.40
2017-06-30T00:16:02.714Z,5.50
2017-06-30T00:16:06.982Z,5.50
2017-06-30T00:16:11.218Z,5.80
2017-06-30T00:16:15.539Z,5.90
2017-06-30T00:16:19.825Z,5.73
2017-06-30T00:16:24.865Z,5.70
2017-06-30T00:16:29.116Z,5.80
2017-06-30T00:16:33.369Z,5.80
2017-06-30T00:16:37.657Z,5.80
2017-06-30T00:16:42.659Z,5.83
2017-06-30T00:16:46.907Z,5.73
2017-06-30T00:16:51.151Z,5.70
2017-06-30T00:16:55.417Z,5.75
2017-06-30T00:16:59.679Z,5.80
2017-06-30T00:17:04.719Z,5.85
2017-06-30T00:17:08.966Z,5.80
2017-06-30T00:17:14.128Z,5.30
2017-06-30T00:17:18.402Z,5.47
2017-06-30T00:17:23.418Z,5.70
2017-06-30T00:17:28.508Z,5.80
2017-06-30T00:17:32.798Z,5.57
2017-06-30T00:17:37.043Z,5.50
2017-06-30T00:17:42.084Z,5.40
2017-06-30T00:17:46.432Z,5.28
2017-06-30T00:17:50.671Z,5.20
2017-06-30T00:17:55.148Z,5.15
2017-06-30T00:17:59.403Z,4.90
2017-06-30T00:18:03.659Z,4.90
2017-06-30T00:18:07.909Z,4.80
2017-06-30T00:18:12.160Z,4.90
2017-06-30T00:18:16.510Z,4.80
2017-06-30T00:18:20.767Z,4.65
2017-06-30T00:18:25.170Z,4.60
2017-06-30T00:18:29.419Z,4.60
2017-06-30T00:18:33.676Z,4.55
2017-06-30T00:18:38.686Z,4.50
2017-06-30T00:18:43.078Z,4.50
2017-06-30T00:18:47.331Z,4.60
2017-06-30T00:18:51.588Z,4.60
2017-06-30T00:18:55.855Z,4.60
2017-06-30T00:19:00.095Z,4.67
2017-06-30T00:19:04.494Z,4.80
2017-06-30T00:19:08.859Z,4.80
2017-06-30T00:19:13.271Z,4.93
2017-06-30T00:19:17.584Z,4.95
2017-06-30T00:19:21.815Z,5.00
2017-06-30T00:19:27.222Z,5.07
2017-06-30T00:19:31.438Z,5.13
2017-06-30T00:19:36.450Z,5.20
2017-06-30T00:19:41.455Z,5.30
2017-06-30T00:19:45.805Z,5.30
2017-06-30T00:19:50.786Z,5.30
2017-06-30T00:19:55.806Z,5.20
2017-06-30T00:20:00.826Z,5.20
2017-06-30T00:20:05.839Z,5.10
2017-06-30T00:20:10.871Z,5.03
2017-06-30T00:20:15.134Z,4.87
2017-06-30T00:20:20.266Z,4.90
2017-06-30T00:20:24.507Z,4.83
2017-06-30T00:20:28.753Z,4.80
2017-06-30T00:20:33.011Z,4.80
2017-06-30T00:20:37.367Z,4.80
2017-06-30T00:20:41.756Z,4.80
2017-06-30T00:20:45.998Z,4.70
2017-06-30T00:20:50.455Z,5.35
2017-06-30T00:20:54.775Z,5.43
2017-06-30T00:20:59.160Z,5.30
2017-06-30T00:21:03.395Z,5.60
2017-06-30T00:21:08.407Z,5.70
2017-06-30T00:21:13.558Z,5.37
2017-06-30T00:21:17.795Z,5.33
2017-06-30T00:21:22.043Z,5.40
2017-06-30T00:21:26.415Z,5.40
2017-06-30T00:21:32.020Z,5.37
2017-06-30T00:21:36.259Z,5.30
2017-06-30T00:21:40.515Z,5.30
2017-06-30T00:21:44.763Z,5.35
2017-06-30T00:21:49.775Z,5.35
2017-06-30T00:21:54.057Z,5.20
2017-06-30T00:21:58.363Z,5.20
2017-06-30T00:22:02.758Z,5.15
2017-06-30T00:22:07.009Z,5.10
2017-06-30T00:22:12.014Z,5.00
2017-06-30T00:22:17.014Z,5.00
2017-06-30T00:22:21.407Z,4.87
2017-06-30T00:22:25.807Z,4.80
2017-06-30T00:22:30.050Z,4.90
2017-06-30T00:22:35.055Z,5.00
2017-06-30T00:22:40.059Z,5.03
2017-06-30T00:22:44.319Z,5.20
2017-06-30T00:22:49.050Z,5.20
2017-06-30T00:22:53.360Z,5.20
2017-06-30T00:22:58.239Z,5.30
2017-06-30T00:23:02.483Z,5.30
2017-06-30T00:23:06.756Z,5.30
2017-06-30T00:23:10.999Z,5.20
2017-06-30T00:23:16.020Z,5.13
2017-06-30T00:23:21.023Z,5.23
2017-06-30T00:23:25.271Z,5.47
2017-06-30T00:23:29.518Z,5.45
2017-06-30T00:23:33.777Z,5.40
2017-06-30T00:23:39.055Z,5.40
2017-06-30T00:23:43.324Z,5.23
2017-06-30T00:23:47.565Z,5.20
2017-06-30T00:23:51.813Z,5.20
2017-06-30T00:23:56.070Z,5.30
2017-06-30T00:24:00.323Z,5.20
2017-06-30T00:24:04.722Z,5.20
2017-06-30T00:24:09.126Z,5.30
2017-06-30T00:24:13.367Z,5.40
2017-06-30T00:24:17.739Z,5.40
2017-06-30T00:24:21.996Z,5.40
2017-06-30T00:24:26.243Z,5.30
2017-06-30T00:24:30.524Z,5.35
2017-06-30T00:24:34.757Z,5.37
2017-06-30T00:24:38.996Z,5.25
2017-06-30T00:24:43.243Z,5.20
2017-06-30T00:24:47.483Z,5.20
2017-06-30T00:24:52.898Z,5.20
2017-06-30T00:24:57.930Z,5.23
2017-06-30T00:25:03.457Z,5.30
2017-06-30T00:25:07.724Z,5.12
2017-06-30T00:25:11.968Z,5.20
2017-06-30T00:25:16.215Z,5.20
2017-06-30T00:25:20.455Z,5.30
2017-06-30T00:25:25.474Z,5.30
2017-06-30T00:25:30.490Z,5.30
2017-06-30T00:25:34.751Z,5.30
2017-06-30T00:25:38.992Z,5.30
2017-06-30T00:25:44.804Z,5.35
2017-06-30T00:25:49.166Z,5.43
2017-06-30T00:25:53.543Z,5.43
2017-06-30T00:25:57.826Z,5.35
2017-06-30T00:26:02.835Z,5.30
2017-06-30T00:26:07.100Z,5.40
2017-06-30T00:26:11.343Z,5.30
2017-06-30T00:26:15.710Z,5.60
2017-06-30T00:26:19.998Z,5.50
2017-06-30T00:26:24.306Z,5.40
2017-06-30T00:26:28.551Z,5.40
2017-06-30T00:26:33.558Z,5.30
2017-06-30T00:26:37.795Z,5.40
2017-06-30T00:26:42.035Z,5.35
2017-06-30T00:26:47.717Z,5.20
2017-06-30T00:26:51.954Z,5.20
2017-06-30T00:26:56.380Z,5.10
2017-06-30T00:27:00.662Z,5.10
2017-06-30T00:27:04.906Z,5.10
2017-06-30T00:27:09.924Z,5.20
2017-06-30T00:27:14.305Z,5.07
2017-06-30T00:27:18.688Z,4.85
2017-06-30T00:27:23.095Z,4.87
2017-06-30T00:27:27.370Z,4.90
2017-06-30T00:27:31.594Z,5.00
2017-06-30T00:27:35.839Z,5.00
2017-06-30T00:27:40.858Z,5.20
2017-06-30T00:27:45.222Z,5.20
2017-06-30T00:27:49.506Z,5.30
2017-06-30T00:27:53.750Z,5.30
2017-06-30T00:27:58.762Z,5.40
2017-06-30T00:28:03.366Z,5.30
2017-06-30T00:28:07.742Z,5.20
2017-06-30T00:28:11.993Z,5.30
2017-06-30T00:28:16.385Z,5.25
2017-06-30T00:28:20.862Z,5.30
2017-06-30T00:28:25.164Z,5.20
2017-06-30T00:28:29.406Z,5.10
2017-06-30T00:28:33.650Z,5.10
2017-06-30T00:28:37.913Z,5.00
2017-06-30T00:28:42.173Z,5.00
2017-06-30T00:28:46.457Z,5.10
2017-06-30T00:28:50.695Z,5.10
2017-06-30T00:28:55.702Z,5.10
2017-06-30T00:28:59.974Z,5.10
2017-06-30T00:29:04.216Z,5.10
2017-06-30T00:29:08.474Z,5.10
2017-06-30T00:29:12.746Z,5.20
2017-06-30T00:29:16.966Z,5.10
2017-06-30T00:29:21.211Z,5.10
2017-06-30T00:29:25.454Z,5.20
2017-06-30T00:29:29.703Z,5.10
2017-06-30T00:29:33.944Z,5.20
2017-06-30T00:29:38.183Z,5.10
2017-06-30T00:29:42.447Z,4.90
2017-06-30T00:29:46.685Z,4.67
2017-06-30T00:29:50.918Z,4.80
2017-06-30T00:29:55.928Z,5.00
2017-06-30T00:30:00.297Z,5.00
2017-06-30T00:30:04.539Z,4.93
2017-06-30T00:30:09.542Z,4.90
2017-06-30T00:30:14.567Z,4.87
2017-06-30T00:30:18.930Z,4.87
2017-06-30T00:30:23.200Z,4.80
2017-06-30T00:30:27.455Z,4.90
2017-06-30T00:30:31.702Z,4.95
2017-06-30T00:30:35.946Z,5.05
2017-06-30T00:30:40.230Z,5.20
2017-06-30T00:30:44.658Z,5.23
2017-06-30T00:30:48.935Z,5.30
2017-06-30T00:30:53.177Z,5.25
2017-06-30T00:30:58.210Z,5.37
2017-06-30T00:31:03.219Z,5.40
2017-06-30T00:31:08.225Z,5.40
2017-06-30T00:31:13.282Z,5.40
2017-06-30T00:31:18.005Z,5.40
2017-06-30T00:31:22.247Z,5.50
2017-06-30T00:31:26.499Z,5.65
2017-06-30T00:31:30.775Z,5.65
2017-06-30T00:31:34.982Z,5.50
2017-06-30T00:31:39.247Z,5.30
2017-06-30T00:31:43.531Z,5.40
2017-06-30T00:31:47.935Z,5.30
2017-06-30T00:31:52.188Z,5.20
2017-06-30T00:31:56.424Z,5.35
2017-06-30T00:32:00.678Z,4.90
2017-06-30T00:32:04.942Z,4.85
2017-06-30T00:32:09.186Z,4.90
2017-06-30T00:32:13.850Z,4.90
2017-06-30T00:32:18.100Z,4.90
2017-06-30T00:32:22.346Z,4.85
2017-06-30T00:32:26.736Z,4.70
2017-06-30T00:32:31.046Z,4.70
2017-06-30T00:32:35.295Z,4.75
2017-06-30T00:32:39.546Z,4.90
2017-06-30T00:32:43.794Z,4.90
2017-06-30T00:32:48.058Z,5.00
2017-06-30T00:32:52.325Z,5.00
2017-06-30T00:32:56.547Z,5.10
2017-06-30T00:33:00.839Z,5.00
2017-06-30T00:33:05.147Z,5.00
2017-06-30T00:33:09.394Z,4.90
2017-06-30T00:33:13.638Z,4.80
2017-06-30T00:33:18.078Z,4.80
2017-06-30T00:33:22.318Z,4.80
2017-06-30T00:33:26.580Z,4.90
2017-06-30T00:33:30.858Z,4.80
2017-06-30T00:33:35.083Z,4.80
2017-06-30T00:33:40.191Z,4.90
2017-06-30T00:33:44.431Z,4.83
2017-06-30T00:33:48.686Z,4.93
2017-06-30T00:33:52.942Z,4.95
2017-06-30T00:33:57.195Z,5.00
2017-06-30T00:34:01.446Z,5.10
2017-06-30T00:34:05.703Z,5.10
2017-06-30T00:34:09.945Z,5.20
2017-06-30T00:34:14.183Z,5.20
2017-06-30T00:34:18.791Z,5.27
2017-06-30T00:34:23.030Z,5.30
2017-06-30T00:34:27.286Z,5.20
2017-06-30T00:34:31.538Z,5.10
2017-06-30T00:34:35.783Z,4.85
2017-06-30T00:34:40.027Z,4.95
2017-06-30T00:34:44.299Z,5.00
2017-06-30T00:34:48.556Z,4.97
2017-06-30T00:34:52.795Z,5.00
2017-06-30T00:34:57.035Z,5.00
2017-06-30T00:35:01.939Z,4.90
2017-06-30T00:35:06.187Z,4.80
2017-06-30T00:35:10.439Z,4.87
2017-06-30T00:35:15.462Z,4.90
2017-06-30T00:35:19.721Z,4.90
2017-06-30T00:35:24.031Z,5.05
2017-06-30T00:35:28.298Z,5.13
2017-06-30T00:35:32.543Z,5.25
2017-06-30T00:35:36.806Z,5.35
2017-06-30T00:35:41.054Z,5.20
2017-06-30T00:35:45.430Z,5.30
2017-06-30T00:35:49.723Z,5.30
2017-06-30T00:35:53.980Z,5.35
2017-06-30T00:35:58.231Z,5.40
2017-06-30T00:36:02.476Z,5.50
2017-06-30T00:36:06.723Z,5.50
2017-06-30T00:36:11.199Z,5.50
2017-06-30T00:36:15.530Z,5.35
2017-06-30T00:36:19.774Z,5.30
2017-06-30T00:36:24.783Z,5.30
2017-06-30T00:36:29.819Z,5.30
2017-06-30T00:36:34.810Z,5.23
2017-06-30T00:36:39.099Z,5.13
2017-06-30T00:36:43.362Z,5.00
2017-06-30T00:36:47.658Z,4.90
2017-06-30T00:36:51.914Z,5.00
2017-06-30T00:36:56.288Z,4.85
2017-06-30T00:37:00.597Z,4.85
2017-06-30T00:37:04.848Z,5.03
2017-06-30T00:37:09.097Z,5.05
2017-06-30T00:37:13.346Z,5.00
2017-06-30T00:37:17.703Z,5.10
2017-06-30T00:37:21.963Z,5.00
2017-06-30T00:37:26.202Z,5.00
2017-06-30T00:37:30.441Z,5.15
2017-06-30T00:37:34.684Z,5.20
2017-06-30T00:37:38.940Z,5.20
2017-06-30T00:37:43.244Z,5.20
2017-06-30T00:37:47.486Z,5.20
2017-06-30T00:37:51.745Z,5.13
2017-06-30T00:37:56.008Z,5.20
2017-06-30T00:38:00.256Z,5.30
2017-06-30T00:38:04.529Z,5.20
2017-06-30T00:38:09.547Z,5.20
2017-06-30T00:38:14.547Z,5.20
2017-06-30T00:38:18.797Z,5.20
2017-06-30T00:38:23.222Z,5.15
2017-06-30T00:38:27.642Z,4.97
2017-06-30T00:38:31.881Z,4.95
2017-06-30T00:38:36.878Z,4.95
2017-06-30T00:38:41.998Z,4.97
2017-06-30T00:38:46.486Z,5.22
2017-06-30T00:38:50.985Z,5.30
2017-06-30T00:38:55.226Z,5.30
2017-06-30T00:39:00.226Z,5.40
2017-06-30T00:39:04.502Z,5.50
2017-06-30T00:39:08.731Z,5.20
2017-06-30T00:39:13.847Z,5.25
2017-06-30T00:39:18.548Z,5.62
2017-06-30T00:39:22.796Z,5.90
2017-06-30T00:39:27.055Z,5.90
2017-06-30T00:39:31.310Z,6.37
2017-06-30T00:39:35.567Z,6.80
2017-06-30T00:39:39.799Z,6.70
2017-06-30T00:39:44.136Z,6.17
2017-06-30T00:39:48.387Z,5.95
2017-06-30T00:39:52.644Z,6.25
2017-06-30T00:39:56.873Z,6.40
2017-06-30T00:40:02.283Z,6.60
2017-06-30T00:40:06.532Z,6.60
2017-06-30T00:40:10.770Z,6.70
2017-06-30T00:40:15.151Z,6.57
2017-06-30T00:40:19.387Z,6.95
2017-06-30T00:40:23.628Z,7.05
2017-06-30T00:40:27.894Z,7.05
2017-06-30T00:40:32.146Z,6.40
2017-06-30T00:40:36.390Z,6.15
2017-06-30T00:40:40.632Z,6.20
2017-06-30T00:40:44.976Z,6.20
2017-06-30T00:40:49.224Z,6.00
2017-06-30T00:40:53.466Z,5.60
2017-06-30T00:40:57.704Z,5.70
2017-06-30T00:41:02.716Z,5.37
2017-06-30T00:41:06.967Z,5.33
2017-06-30T00:41:11.209Z,5.80
2017-06-30T00:41:15.454Z,5.75
2017-06-30T00:41:19.703Z,5.00
2017-06-30T00:41:23.954Z,4.83
2017-06-30T00:41:28.357Z,4.80
2017-06-30T00:41:32.803Z,4.70
2017-06-30T00:41:37.086Z,4.95
2017-06-30T00:41:41.321Z,5.55
2017-06-30T00:41:45.566Z,6.15
2017-06-30T00:41:49.827Z,6.27
2017-06-30T00:41:54.846Z,6.15
2017-06-30T00:41:59.868Z,5.53
2017-06-30T00:42:04.877Z,5.57
2017-06-30T00:42:09.119Z,5.70
2017-06-30T00:42:13.481Z,5.15
2017-06-30T00:42:17.851Z,5.20
2017-06-30T00:42:22.103Z,5.35
2017-06-30T00:42:26.467Z,5.43
2017-06-30T00:42:30.715Z,5.80
2017-06-30T00:42:34.959Z,6.15
2017-06-30T00:42:39.219Z,5.45
2017-06-30T00:42:43.574Z,5.10
2017-06-30T00:42:47.882Z,5.00
2017-06-30T00:42:52.131Z,5.00
2017-06-30T00:42:56.367Z,5.13
2017-06-30T00:43:00.627Z,5.20
2017-06-30T00:43:04.901Z,5.10
2017-06-30T00:43:09.920Z,5.00
2017-06-30T00:43:14.920Z,4.97
2017-06-30T00:43:19.162Z,5.10
2017-06-30T00:43:23.416Z,5.00
2017-06-30T00:43:27.660Z,5.15
2017-06-30T00:43:31.927Z,5.10
2017-06-30T00:43:36.206Z,5.00
2017-06-30T00:43:40.459Z,5.00
2017-06-30T00:43:44.706Z,5.00
2017-06-30T00:43:48.951Z,5.10
2017-06-30T00:43:53.218Z,5.13
2017-06-30T00:43:57.466Z,5.10
2017-06-30T00:44:01.724Z,5.10
2017-06-30T00:44:05.970Z,5.35
2017-06-30T00:44:10.224Z,5.60
2017-06-30T00:44:14.458Z,5.70
2017-06-30T00:44:18.712Z,5.70
2017-06-30T00:44:22.963Z,5.70
2017-06-30T00:44:27.399Z,5.73
2017-06-30T00:44:31.655Z,5.70
2017-06-30T00:44:35.894Z,5.80
2017-06-30T00:44:40.146Z,5.70
2017-06-30T00:44:45.173Z,5.70
2017-06-30T00:44:49.423Z,5.67
2017-06-30T00:44:53.883Z,5.80
2017-06-30T00:44:58.143Z,6.10
2017-06-30T00:45:02.409Z,6.00
2017-06-30T00:45:06.737Z,6.00
2017-06-30T00:45:11.123Z,6.63
2017-06-30T00:45:15.366Z,6.70
2017-06-30T00:45:19.630Z,6.70
2017-06-30T00:45:23.893Z,6.70
2017-06-30T00:45:28.155Z,6.45
2017-06-30T00:45:32.530Z,6.50
2017-06-30T00:45:36.794Z,7.40
2017-06-30T00:45:41.029Z,8.15
2017-06-30T00:45:45.266Z,8.20
2017-06-30T00:45:50.279Z,8.90
2017-06-30T00:45:54.672Z,8.50
2017-06-30T00:45:58.923Z,7.90
2017-06-30T00:46:03.254Z,7.95
2017-06-30T00:46:08.015Z,7.65
2017-06-30T00:46:13.080Z,6.97
2017-06-30T00:46:17.299Z,7.33
2017-06-30T00:46:21.579Z,7.47
2017-06-30T00:46:25.882Z,7.50
2017-06-30T00:46:30.137Z,7.55
2017-06-30T00:46:34.488Z,7.33
2017-06-30T00:46:38.746Z,5.80
2017-06-30T00:46:43.008Z,5.85
2017-06-30T00:46:47.250Z,5.65
2017-06-30T00:46:51.480Z,5.40
2017-06-30T00:46:55.737Z,5.40
2017-06-30T00:47:00.092Z,5.40
2017-06-30T00:47:04.335Z,5.50
2017-06-30T00:47:09.346Z,5.67
2017-06-30T00:47:15.603Z,5.60
2017-06-30T00:47:20.605Z,5.53
2017-06-30T00:47:25.631Z,5.53
2017-06-30T00:47:30.646Z,5.60
2017-06-30T00:47:35.658Z,5.50
2017-06-30T00:47:39.903Z,5.47
2017-06-30T00:47:44.230Z,5.23
2017-06-30T00:47:48.487Z,5.20
2017-06-30T00:47:52.827Z,5.30
2017-06-30T00:47:57.077Z,5.35
2017-06-30T00:48:02.106Z,5.37
2017-06-30T00:48:06.363Z,5.20
2017-06-30T00:48:10.606Z,5.25
2017-06-30T00:48:14.855Z,5.30
2017-06-30T00:48:19.310Z,5.40
2017-06-30T00:48:23.556Z,5.30
2017-06-30T00:48:27.803Z,5.30
2017-06-30T00:48:32.824Z,5.43
2017-06-30T00:48:37.842Z,5.60
2017-06-30T00:48:42.855Z,5.67
2017-06-30T00:48:47.890Z,5.70
2017-06-30T00:48:52.187Z,5.53
2017-06-30T00:48:57.390Z,5.50
2017-06-30T00:49:02.869Z,5.50
2017-06-30T00:49:07.370Z,5.50
2017-06-30T00:49:11.611Z,5.50
2017-06-30T00:49:15.868Z,5.50
2017-06-30T00:49:20.112Z,5.50
2017-06-30T00:49:24.362Z,5.60
2017-06-30T00:49:28.703Z,5.60
2017-06-30T00:49:33.090Z,5.70
2017-06-30T00:49:37.387Z,5.65
2017-06-30T00:49:41.790Z,5.50
2017-06-30T00:49:46.030Z,6.05
2017-06-30T00:49:51.040Z,5.95
2017-06-30T00:49:56.108Z,6.03
2017-06-30T00:50:00.344Z,6.30
2017-06-30T00:50:04.607Z,6.40
2017-06-30T00:50:08.859Z,6.30
2017-06-30T00:50:13.108Z,6.40
2017-06-30T00:50:17.405Z,6.25
2017-06-30T00:50:21.678Z,5.87
2017-06-30T00:50:26.035Z,5.55
2017-06-30T00:50:30.279Z,5.50
2017-06-30T00:50:35.324Z,5.50
2017-06-30T00:50:40.303Z,5.47
2017-06-30T00:50:44.543Z,5.37
2017-06-30T00:50:49.013Z,5.35
2017-06-30T00:50:54.068Z,5.40
2017-06-30T00:50:58.313Z,5.30
2017-06-30T00:51:02.568Z,5.43
2017-06-30T00:51:06.810Z,5.60
2017-06-30T00:51:11.056Z,5.80
2017-06-30T00:51:15.291Z,5.90
2017-06-30T00:51:19.543Z,5.87
2017-06-30T00:51:24.554Z,6.05
2017-06-30T00:51:29.575Z,6.07
2017-06-30T00:51:34.590Z,6.00
2017-06-30T00:51:39.603Z,6.00
2017-06-30T00:51:44.626Z,6.07
2017-06-30T00:51:49.639Z,5.77
2017-06-30T00:51:53.915Z,5.87
2017-06-30T00:51:58.323Z,5.90
2017-06-30T00:52:02.563Z,5.65
2017-06-30T00:52:07.574Z,5.60
2017-06-30T00:52:12.583Z,5.60
2017-06-30T00:52:17.595Z,5.30
2017-06-30T00:52:21.855Z,5.15
2017-06-30T00:52:26.094Z,5.00
2017-06-30T00:52:30.469Z,5.10
2017-06-30T00:52:34.910Z,5.10
2017-06-30T00:52:39.158Z,5.00
2017-06-30T00:52:43.402Z,5.05
2017-06-30T00:52:47.650Z,5.20
2017-06-30T00:52:51.898Z,4.90
2017-06-30T00:52:56.182Z,4.97
2017-06-30T00:53:00.576Z,4.95
2017-06-30T00:53:04.978Z,4.90
2017-06-30T00:53:09.244Z,5.00
2017-06-30T00:53:13.478Z,4.90
2017-06-30T00:53:17.722Z,5.00
2017-06-30T00:53:22.739Z,5.10
2017-06-30T00:53:27.106Z,5.13
2017-06-30T00:53:31.510Z,5.10
2017-06-30T00:53:35.910Z,5.10
2017-06-30T00:53:40.206Z,5.15
2017-06-30T00:53:44.471Z,5.00
2017-06-30T00:53:48.707Z,5.05
2017-06-30T00:53:52.963Z,5.07
2017-06-30T00:53:57.207Z,5.00
2017-06-30T00:54:01.548Z,5.10
2017-06-30T00:54:05.935Z,5.10
2017-06-30T00:54:10.415Z,5.10
2017-06-30T00:54:14.931Z,5.03
2017-06-30T00:54:19.341Z,5.00
2017-06-30T00:54:23.578Z,5.05
2017-06-30T00:54:27.837Z,5.07
2017-06-30T00:54:32.080Z,5.30
2017-06-30T00:54:36.323Z,5.25
2017-06-30T00:54:40.590Z,5.27
2017-06-30T00:54:45.026Z,5.35
2017-06-30T00:54:49.439Z,5.45
2017-06-30T00:54:53.842Z,5.50
2017-06-30T00:54:58.135Z,5.50
2017-06-30T00:55:02.375Z,5.50
2017-06-30T00:55:07.399Z,5.50
2017-06-30T00:55:12.431Z,5.53
2017-06-30T00:55:17.426Z,5.60
2017-06-30T00:55:21.667Z,5.77
2017-06-30T00:55:26.019Z,5.90
2017-06-30T00:55:30.291Z,5.90
2017-06-30T00:55:34.711Z,6.00
2017-06-30T00:55:38.958Z,6.00
2017-06-30T00:55:43.199Z,5.95
2017-06-30T00:55:47.458Z,5.80
2017-06-30T00:55:51.713Z,5.75
2017-06-30T00:55:55.957Z,5.80
2017-06-30T00:56:00.194Z,5.70
2017-06-30T00:56:04.447Z,5.83
2017-06-30T00:56:09.459Z,5.80
2017-06-30T00:56:14.464Z,5.80
2017-06-30T00:56:18.707Z,5.80
2017-06-30T00:56:22.950Z,5.80
2017-06-30T00:56:27.202Z,5.63
2017-06-30T00:56:31.607Z,5.50
2017-06-30T00:56:36.596Z,5.50
2017-06-30T00:56:41.608Z,5.50
2017-06-30T00:56:45.867Z,5.60
2017-06-30T00:56:50.287Z,6.07
2017-06-30T00:56:54.690Z,6.25
2017-06-30T00:56:58.930Z,7.15
2017-06-30T00:57:03.938Z,7.43
2017-06-30T00:57:08.942Z,7.57
2017-06-30T00:57:13.200Z,7.70
2017-06-30T00:57:17.438Z,7.40
2017-06-30T00:57:21.674Z,7.20
2017-06-30T00:57:25.923Z,7.03
2017-06-30T00:57:30.174Z,7.20
2017-06-30T00:57:34.422Z,7.15
2017-06-30T00:57:38.665Z,6.65
2017-06-30T00:57:43.671Z,6.97
2017-06-30T00:57:48.670Z,6.43
2017-06-30T00:57:52.919Z,6.27
2017-06-30T00:57:57.163Z,5.75
2017-06-30T00:58:01.407Z,5.60
2017-06-30T00:58:05.655Z,5.50
2017-06-30T00:58:09.934Z,5.40
2017-06-30T00:58:14.191Z,5.30
2017-06-30T00:58:18.436Z,5.30
2017-06-30T00:58:22.768Z,5.50
2017-06-30T00:58:27.006Z,5.60
2017-06-30T00:58:31.254Z,5.60
2017-06-30T00:58:35.497Z,5.60
2017-06-30T00:58:40.508Z,5.70
2017-06-30T00:58:45.508Z,5.23
2017-06-30T00:58:49.766Z,5.30
2017-06-30T00:58:54.458Z,5.25
2017-06-30T00:58:58.776Z,5.20
2017-06-30T00:59:03.771Z,5.40